Time;durP1;ratioP1;P1;durP2;ratioP2;P2;SDS_P1;SDS_P2;PMS_P1;PMS_P2;Temp;Humidity;BMP_temperature;BMP_pressure;BME280_temperature;BME280_humidity;BME280_pressure;Samples;Min_cycle;Max_cycle;Signal;HPM_P1;HPM_P2
2024/02/26 00:00:37;;;;;;;1.30;1.20;;;;;;;;;;5037977;28;20179;-95
2024/02/26 00:03:05;;;;;;;1.45;1.35;;;;;;;;;;5037750;28;20276;-93
2024/02/26 00:05:34;;;;;;;1.77;1.67;;;;;;;;;;5037795;28;20191;-94
2024/02/26 00:08:02;;;;;;;1.30;1.20;;;;;;;;;;5037761;28;20239;-94
2024/02/26 00:10:30;;;;;;;1.52;1.42;;;;;;;;;;5037753;28;20229;-95
2024/02/26 00:12:58;;;;;;;1.60;1.50;;;;;;;;;;5037575;28;20214;-93
2024/02/26 00:15:27;;;;;;;1.73;1.63;;;;;;;;;;5037621;28;20241;-93
2024/02/26 00:17:55;;;;;;;1.63;1.52;;;;;;;;;;5037649;28;20191;-94
2024/02/26 00:20:23;;;;;;;2.05;1.42;;;;;;;;;;5037598;28;20294;-92
2024/02/26 00:22:52;;;;;;;1.55;1.15;;;;;;;;;;5037363;28;20179;-94
2024/02/26 00:25:20;;;;;;;1.58;1.48;;;;;;;;;;5037500;28;20195;-93
2024/02/26 00:27:48;;;;;;;1.33;1.23;;;;;;;;;;5037551;28;20191;-94
2024/02/26 00:30:16;;;;;;;1.77;1.40;;;;;;;;;;5037465;28;20198;-92
2024/02/26 00:32:44;;;;;;;2.03;1.60;;;;;;;;;;5037313;28;20183;-93
2024/02/26 00:35:12;;;;;;;2.00;1.80;;;;;;;;;;5037383;28;20198;-93
2024/02/26 00:37:40;;;;;;;1.58;1.48;;;;;;;;;;5037368;28;20183;-94
2024/02/26 00:40:10;;;;;;;1.50;1.40;;;;;;;;;;5037542;28;20191;-94
2024/02/26 00:42:38;;;;;;;1.42;1.33;;;;;;;;;;5037318;28;20190;-94
2024/02/26 00:45:07;;;;;;;2.35;1.60;;;;;;;;;;5037171;28;20203;-94
2024/02/26 00:47:35;;;;;;;2.25;1.58;;;;;;;;;;5041006;28;20203;-93
2024/02/26 00:50:03;;;;;;;1.60;1.50;;;;;;;;;;5041232;28;20205;-93
2024/02/26 00:52:31;;;;;;;1.65;1.55;;;;;;;;;;5041042;28;20190;-93
2024/02/26 00:55:00;;;;;;;1.73;1.63;;;;;;;;;;5041325;28;20191;-93
2024/02/26 00:57:29;;;;;;;1.67;1.50;;;;;;;;;;5041168;28;20199;-93
2024/02/26 00:59:57;;;;;;;1.77;1.20;;;;;;;;;;5041221;28;20187;-93
2024/02/26 01:02:25;;;;;;;1.60;1.20;;;;;;;;;;5040818;28;20179;-93
2024/02/26 01:04:53;;;;;;;1.50;1.40;;;;;;;;;;5041068;28;20218;-93
2024/02/26 01:07:21;;;;;;;1.52;1.42;;;;;;;;;;5041108;28;20186;-95
2024/02/26 01:09:49;;;;;;;3.40;2.20;;;;;;;;;;5040936;28;20227;-93
2024/02/26 01:12:17;;;;;;;1.58;1.42;;;;;;;;;;5040812;28;20199;-95
2024/02/26 01:14:46;;;;;;;1.48;1.38;;;;;;;;;;5040992;28;20195;-95
2024/02/26 01:17:14;;;;;;;1.40;1.30;;;;;;;;;;5040779;28;20179;-94
2024/02/26 01:19:41;;;;;;;1.40;1.27;;;;;;;;;;5040751;28;20210;-93
2024/02/26 01:22:09;;;;;;;1.77;1.60;;;;;;;;;;5040566;28;20179;-94
2024/02/26 01:24:37;;;;;;;1.65;1.55;;;;;;;;;;5040590;28;20195;-95
2024/02/26 01:27:07;;;;;;;1.65;1.42;;;;;;;;;;5040656;28;20210;-94
2024/02/26 01:29:35;;;;;;;1.88;1.77;;;;;;;;;;5040545;28;20182;-93
2024/02/26 01:32:05;;;;;;;1.55;1.45;;;;;;;;;;5040446;28;20186;-93
2024/02/26 01:34:33;;;;;;;1.35;1.17;;;;;;;;;;5040488;28;20203;-93
2024/02/26 01:37:01;;;;;;;1.77;1.60;;;;;;;;;;5040348;28;20235;-93
2024/02/26 01:39:30;;;;;;;1.60;1.33;;;;;;;;;;5040401;28;20179;-93
2024/02/26 01:41:58;;;;;;;1.38;1.30;;;;;;;;;;5040259;28;20176;-93
2024/02/26 01:44:25;;;;;;;1.48;1.38;;;;;;;;;;5040191;28;20195;-92
2024/02/26 01:46:53;;;;;;;1.70;1.60;;;;;;;;;;5040233;28;20187;-94
2024/02/26 01:49:23;;;;;;;1.80;1.67;;;;;;;;;;5040192;28;20201;-94
2024/02/26 01:51:51;;;;;;;1.40;1.30;;;;;;;;;;5039937;28;20242;-93
2024/02/26 01:54:19;;;;;;;1.20;1.10;;;;;;;;;;5040085;28;20194;-93
2024/02/26 01:56:47;;;;;;;1.27;1.17;;;;;;;;;;5039598;28;20187;-93
2024/02/26 01:59:15;;;;;;;1.60;1.50;;;;;;;;;;5040096;28;20234;-93
2024/02/26 02:01:46;;;;;;;1.75;1.55;;;;;;;;;;5039845;28;20183;-93
2024/02/26 02:04:14;;;;;;;1.50;1.40;;;;;;;;;;5039892;28;20189;-94
2024/02/26 02:06:45;;;;;;;1.52;1.42;;;;;;;;;;5039934;28;20218;-94
2024/02/26 02:09:13;;;;;;;2.83;1.38;;;;;;;;;;5039934;28;20183;-93
2024/02/26 02:11:41;;;;;;;2.25;2.00;;;;;;;;;;5039674;28;20226;-93
2024/02/26 02:14:08;;;;;;;1.40;1.30;;;;;;;;;;5039660;28;20187;-93
2024/02/26 02:16:36;;;;;;;1.58;1.50;;;;;;;;;;5039765;28;20183;-93
2024/02/26 02:19:04;;;;;;;1.40;1.10;;;;;;;;;;5039780;28;20203;-93
2024/02/26 02:21:33;;;;;;;1.27;1.17;;;;;;;;;;5039552;28;20187;-93
2024/02/26 02:24:01;;;;;;;1.30;1.20;;;;;;;;;;5039594;28;20199;-94
2024/02/26 02:26:29;;;;;;;1.60;1.50;;;;;;;;;;5039489;28;20183;-94
2024/02/26 02:28:57;;;;;;;1.30;1.20;;;;;;;;;;5039594;28;20202;-94
2024/02/26 02:31:25;;;;;;;1.45;1.35;;;;;;;;;;5039352;28;20215;-94
2024/02/26 02:33:53;;;;;;;1.40;1.30;;;;;;;;;;5039430;28;20179;-93
2024/02/26 02:36:20;;;;;;;1.90;1.70;;;;;;;;;;5039290;28;20199;-93
2024/02/26 02:38:53;;;;;;;1.70;1.60;;;;;;;;;;5039096;28;20186;-92
2024/02/26 02:41:21;;;;;;;1.35;1.30;;;;;;;;;;5039339;28;20203;-94
2024/02/26 02:43:49;;;;;;;1.60;1.50;;;;;;;;;;5039194;28;20180;-92
2024/02/26 03:46:02;;;;;;;2.08;1.98;;;;;;;;;;5583271;22;20278;-92
2024/02/26 03:48:30;;;;;;;2.22;1.83;;;;;;;;;;5014432;28;20207;-92
2024/02/26 03:50:57;;;;;;;1.45;1.35;;;;;;;;;;5014342;28;20206;-92
2024/02/26 03:53:25;;;;;;;1.50;1.40;;;;;;;;;;5014760;28;20206;-92
2024/02/26 03:55:53;;;;;;;1.95;1.27;;;;;;;;;;5015164;28;20297;-92
2024/02/26 05:31:48;;;;;;;1.70;1.60;;;;;;;;;;4991958;28;20225;-92
2024/02/26 05:34:15;;;;;;;1.95;1.77;;;;;;;;;;5000728;28;20205;-92
2024/02/26 05:36:43;;;;;;;2.22;2.00;;;;;;;;;;4998708;28;20188;-93
2024/02/26 05:39:11;;;;;;;3.55;2.20;;;;;;;;;;4995024;28;20224;-92
2024/02/26 05:41:39;;;;;;;2.97;2.78;;;;;;;;;;5000641;28;20208;-94
2024/02/26 05:44:09;;;;;;;1.88;1.77;;;;;;;;;;5123496;22;20219;-92
2024/02/26 05:46:37;;;;;;;2.83;2.08;;;;;;;;;;5032330;28;20249;-91
2024/02/26 05:49:07;;;;;;;2.13;1.83;;;;;;;;;;5019028;28;20230;-91
2024/02/26 05:51:34;;;;;;;1.83;1.73;;;;;;;;;;5017535;28;20662;-92
2024/02/26 05:54:02;;;;;;;2.75;2.03;;;;;;;;;;5016269;28;20306;-91
2024/02/26 05:56:29;;;;;;;3.78;2.67;;;;;;;;;;5016093;28;20262;-92
2024/02/26 05:58:57;;;;;;;2.05;1.95;;;;;;;;;;5015874;28;20294;-91
2024/02/26 06:01:25;;;;;;;1.98;1.88;;;;;;;;;;5015635;28;20286;-92
2024/02/26 06:03:53;;;;;;;5.05;1.92;;;;;;;;;;5015647;28;20277;-91
2024/02/26 06:06:23;;;;;;;2.65;1.98;;;;;;;;;;5015400;28;20253;-93
2024/02/26 06:08:50;;;;;;;2.17;1.98;;;;;;;;;;5015404;28;20213;-93
2024/02/26 06:11:19;;;;;;;2.78;2.53;;;;;;;;;;5025604;28;20207;-92
2024/02/26 06:13:46;;;;;;;2.30;2.10;;;;;;;;;;5015213;28;20253;-93
2024/02/26 06:16:14;;;;;;;2.42;1.88;;;;;;;;;;5021695;28;20230;-92
2024/02/26 06:18:41;;;;;;;2.92;2.72;;;;;;;;;;5039218;28;20187;-92
2024/02/26 06:21:11;;;;;;;3.75;2.67;;;;;;;;;;5039781;28;20183;-92
2024/02/26 06:23:40;;;;;;;2.55;2.28;;;;;;;;;;5039587;28;20207;-92
2024/02/26 06:26:08;;;;;;;3.30;3.00;;;;;;;;;;5039665;28;20247;-92
2024/02/26 06:28:35;;;;;;;3.30;2.97;;;;;;;;;;5028483;28;20227;-92
2024/02/26 06:31:03;;;;;;;4.53;3.58;;;;;;;;;;5019520;28;20214;-94
2024/02/26 06:33:31;;;;;;;3.10;2.67;;;;;;;;;;5015533;28;20290;-91
2024/02/26 06:35:58;;;;;;;2.58;2.40;;;;;;;;;;5015230;28;20199;-92
2024/02/26 06:38:26;;;;;;;3.65;3.28;;;;;;;;;;5015129;28;20290;-92
2024/02/26 06:40:55;;;;;;;3.38;3.08;;;;;;;;;;5014796;28;20291;-92
2024/02/26 06:43:23;;;;;;;3.97;3.40;;;;;;;;;;5014402;28;20231;-92
2024/02/26 06:45:50;;;;;;;4.45;4.05;;;;;;;;;;5014452;28;20627;-92
2024/02/26 06:48:18;;;;;;;5.28;4.47;;;;;;;;;;5014550;28;20343;-91
2024/02/26 06:50:46;;;;;;;4.30;3.90;;;;;;;;;;5014636;28;20195;-92
2024/02/26 06:53:13;;;;;;;5.80;4.47;;;;;;;;;;5014028;28;20254;-92
2024/02/26 06:55:41;;;;;;;5.55;4.00;;;;;;;;;;5014457;28;20302;-92
2024/02/26 06:58:10;;;;;;;4.15;3.70;;;;;;;;;;5014533;28;20207;-92
2024/02/26 07:00:38;;;;;;;4.22;3.60;;;;;;;;;;5014293;28;20291;-92
2024/02/26 07:03:06;;;;;;;5.43;4.32;;;;;;;;;;5014091;28;20223;-91
2024/02/26 07:05:34;;;;;;;4.68;4.22;;;;;;;;;;5014089;28;20623;-92
2024/02/26 07:08:02;;;;;;;4.75;4.30;;;;;;;;;;5014235;28;20604;-92
2024/02/26 07:10:29;;;;;;;4.90;4.40;;;;;;;;;;5015162;28;20291;-92
2024/02/26 07:12:57;;;;;;;5.68;4.72;;;;;;;;;;5014078;28;20760;-92
2024/02/26 07:15:26;;;;;;;5.53;4.68;;;;;;;;;;5013938;28;20226;-92
2024/02/26 07:17:54;;;;;;;5.63;4.80;;;;;;;;;;5016326;28;20286;-92
2024/02/26 07:20:21;;;;;;;7.20;4.45;;;;;;;;;;5015584;28;20223;-92
2024/02/26 07:22:49;;;;;;;5.00;4.60;;;;;;;;;;5013427;28;20744;-92
2024/02/26 07:25:17;;;;;;;7.15;4.72;;;;;;;;;;5014015;28;20314;-92
2024/02/26 07:27:44;;;;;;;4.78;4.32;;;;;;;;;;5017436;28;20222;-92
2024/02/26 07:30:13;;;;;;;5.55;4.07;;;;;;;;;;5015501;28;20199;-92
2024/02/26 07:32:43;;;;;;;6.00;4.70;;;;;;;;;;5013641;28;20677;-92
2024/02/26 07:35:10;;;;;;;6.55;4.60;;;;;;;;;;5013720;28;20247;-92
2024/02/26 07:37:38;;;;;;;6.05;4.75;;;;;;;;;;5013619;28;20227;-92
2024/02/26 07:40:09;;;;;;;7.13;5.80;;;;;;;;;;5017831;28;20285;-92
2024/02/26 07:42:36;;;;;;;5.40;4.90;;;;;;;;;;5014119;28;20207;-92
2024/02/26 07:45:05;;;;;;;7.35;5.55;;;;;;;;;;5013492;28;20599;-92
2024/02/26 07:47:34;;;;;;;5.93;5.32;;;;;;;;;;5013358;28;20198;-92
2024/02/26 07:50:03;;;;;;;6.63;6.03;;;;;;;;;;5013428;28;20588;-93
2024/02/26 07:52:31;;;;;;;7.75;6.65;;;;;;;;;;5013363;28;20640;-92
2024/02/26 07:54:59;;;;;;;4.90;4.50;;;;;;;;;;5012664;28;20303;-92
2024/02/26 07:57:26;;;;;;;6.57;5.72;;;;;;;;;;5013313;28;20286;-92
2024/02/26 07:59:54;;;;;;;9.02;6.95;;;;;;;;;;5013427;28;20635;-93
2024/02/26 08:02:23;;;;;;;5.72;4.93;;;;;;;;;;5022119;28;20219;-92
2024/02/26 08:04:50;;;;;;;7.85;6.75;;;;;;;;;;5013462;28;20273;-92
2024/02/26 08:07:20;;;;;;;11.02;7.93;;;;;;;;;;5013321;28;20281;-92
2024/02/26 08:09:47;;;;;;;10.82;8.05;;;;;;;;;;5013297;28;20211;-92
2024/02/26 08:12:15;;;;;;;13.07;8.60;;;;;;;;;;5013130;28;20203;-92
2024/02/26 08:14:44;;;;;;;9.15;8.23;;;;;;;;;;5013183;28;20227;-92
2024/02/26 08:17:12;;;;;;;7.05;6.32;;;;;;;;;;5015836;28;20203;-93
2024/02/26 08:19:40;;;;;;;8.82;7.93;;;;;;;;;;5012978;28;20283;-94
2024/02/26 08:22:07;;;;;;;8.27;7.43;;;;;;;;;;5021092;28;20226;-92
2024/02/26 08:24:36;;;;;;;11.95;9.98;;;;;;;;;;5012717;28;20215;-92
2024/02/26 08:27:04;;;;;;;9.02;7.40;;;;;;;;;;5012900;28;20627;-93
2024/02/26 08:29:32;;;;;;;9.90;8.10;;;;;;;;;;5012863;28;20219;-92
2024/02/26 08:32:00;;;;;;;11.10;9.25;;;;;;;;;;5012895;28;20293;-92
2024/02/26 08:34:28;;;;;;;10.25;7.75;;;;;;;;;;5012573;28;20233;-92
2024/02/26 08:36:55;;;;;;;8.90;8.00;;;;;;;;;;5012553;28;20264;-93
2024/02/26 08:39:23;;;;;;;9.63;8.23;;;;;;;;;;5012922;28;20290;-92
2024/02/26 08:41:52;;;;;;;8.55;7.72;;;;;;;;;;5012804;28;20286;-92
2024/02/26 08:44:19;;;;;;;9.65;8.00;;;;;;;;;;5012383;28;20254;-92
2024/02/26 08:46:47;;;;;;;10.88;8.40;;;;;;;;;;5012785;28;20286;-91
2024/02/26 08:49:16;;;;;;;10.25;7.93;;;;;;;;;;5026405;28;20226;-91
2024/02/26 08:51:44;;;;;;;9.68;7.43;;;;;;;;;;5023570;28;20563;-92
2024/02/26 08:54:11;;;;;;;9.48;7.72;;;;;;;;;;5012618;28;20310;-91
2024/02/26 08:56:39;;;;;;;9.90;8.77;;;;;;;;;;5012830;28;20222;-93
2024/02/26 08:59:07;;;;;;;8.30;6.78;;;;;;;;;;5012679;28;20246;-92
2024/02/26 09:01:34;;;;;;;9.15;8.25;;;;;;;;;;5012931;28;20198;-93
2024/02/26 09:04:02;;;;;;;8.23;7.28;;;;;;;;;;5015111;28;20763;-92
2024/02/26 09:06:30;;;;;;;11.13;8.20;;;;;;;;;;5015637;28;20204;-93
2024/02/26 09:08:58;;;;;;;10.98;8.77;;;;;;;;;;5021287;28;20207;-94
2024/02/26 09:11:25;;;;;;;8.55;7.65;;;;;;;;;;5020966;28;20230;-93
2024/02/26 09:13:53;;;;;;;9.02;6.85;;;;;;;;;;5016337;28;20703;-92
2024/02/26 09:16:22;;;;;;;7.18;5.85;;;;;;;;;;5016073;28;20291;-92
2024/02/26 09:18:49;;;;;;;6.95;6.22;;;;;;;;;;5017860;28;20286;-94
2024/02/26 09:21:22;;;;;;;7.68;6.88;;;;;;;;;;5016546;28;20285;-91
2024/02/26 09:23:50;;;;;;;8.35;7.40;;;;;;;;;;5015663;28;20732;-91
2024/02/26 09:26:18;;;;;;;7.78;6.55;;;;;;;;;;5015973;28;20238;-92
2024/02/26 09:28:46;;;;;;;9.57;7.72;;;;;;;;;;5016000;28;20290;-91
2024/02/26 09:31:16;;;;;;;8.55;7.65;;;;;;;;;;5015865;28;20198;-91
2024/02/26 09:33:45;;;;;;;8.30;7.43;;;;;;;;;;5015533;28;20230;-92
2024/02/26 09:36:13;;;;;;;7.57;6.68;;;;;;;;;;5015778;28;20203;-92
2024/02/26 09:38:41;;;;;;;8.70;7.47;;;;;;;;;;5015568;28;20207;-92
2024/02/26 09:41:11;;;;;;;6.88;6.15;;;;;;;;;;5015807;28;20653;-91
2024/02/26 09:43:40;;;;;;;6.63;5.28;;;;;;;;;;5022497;28;20265;-91
2024/02/26 09:46:08;;;;;;;6.97;6.28;;;;;;;;;;5015579;28;20267;-91
2024/02/26 09:48:36;;;;;;;9.65;7.28;;;;;;;;;;5015890;28;20285;-91
2024/02/26 09:51:06;;;;;;;7.63;6.65;;;;;;;;;;5015546;28;20199;-92
2024/02/26 09:53:39;;;;;;;7.25;6.57;;;;;;;;;;5016308;28;20222;-92
2024/02/26 09:56:08;;;;;;;7.93;6.90;;;;;;;;;;5017111;28;20211;-92
2024/02/26 09:58:36;;;;;;;5.68;5.18;;;;;;;;;;5027457;28;20639;-92
2024/02/26 10:01:04;;;;;;;6.40;5.80;;;;;;;;;;5020672;28;20230;-91
2024/02/26 10:03:39;;;;;;;8.40;7.20;;;;;;;;;;5015369;28;20306;-88
2024/02/26 10:06:09;;;;;;;6.55;5.90;;;;;;;;;;5015709;28;20209;-89
2024/02/26 10:08:37;;;;;;;8.25;7.38;;;;;;;;;;5014817;28;20290;-89
2024/02/26 10:11:05;;;;;;;8.98;7.28;;;;;;;;;;5014776;28;20203;-88
2024/02/26 10:13:33;;;;;;;9.68;6.63;;;;;;;;;;5015961;28;20231;-90
2024/02/26 10:16:03;;;;;;;7.43;6.70;;;;;;;;;;5015282;28;20788;-90
2024/02/26 10:18:47;;;;;;;5.38;4.85;;;;;;;;;;5014737;28;20623;-90
2024/02/26 10:21:18;;;;;;;6.43;5.82;;;;;;;;;;5014728;28;20294;-90
2024/02/26 10:23:47;;;;;;;6.28;5.65;;;;;;;;;;5014676;28;20266;-91
2024/02/26 10:26:16;;;;;;;6.60;5.57;;;;;;;;;;5014716;28;20195;-90
2024/02/26 10:28:44;;;;;;;6.75;5.65;;;;;;;;;;5014988;28;20281;-91
2024/02/26 10:31:12;;;;;;;7.05;6.20;;;;;;;;;;5016566;28;20282;-92
2024/02/26 10:33:41;;;;;;;6.22;5.60;;;;;;;;;;5016126;28;20253;-91
2024/02/26 10:36:10;;;;;;;9.20;6.35;;;;;;;;;;5016109;28;20230;-92
2024/02/26 10:38:39;;;;;;;5.05;4.55;;;;;;;;;;5014216;28;20582;-92
2024/02/26 10:41:09;;;;;;;8.00;6.80;;;;;;;;;;5014503;28;20657;-91
2024/02/26 10:43:37;;;;;;;8.18;6.50;;;;;;;;;;5013955;28;20713;-91
2024/02/26 10:46:05;;;;;;;7.05;6.35;;;;;;;;;;5014405;28;20246;-89
2024/02/26 10:48:32;;;;;;;7.68;6.90;;;;;;;;;;5014129;28;20757;-89
2024/02/26 10:51:00;;;;;;;8.35;6.03;;;;;;;;;;5014216;28;20282;-89
2024/02/26 10:53:31;;;;;;;5.93;5.32;;;;;;;;;;5013809;28;20687;-89
2024/02/26 10:56:05;;;;;;;7.13;5.45;;;;;;;;;;5014164;28;20689;-89
2024/02/26 10:58:33;;;;;;;5.65;5.07;;;;;;;;;;5014287;28;20198;-89
2024/02/26 11:01:01;;;;;;;5.28;4.80;;;;;;;;;;5014615;28;20203;-89
2024/02/26 11:03:31;;;;;;;7.20;6.07;;;;;;;;;;5013691;28;20215;-89
2024/02/26 11:06:00;;;;;;;8.10;5.55;;;;;;;;;;5014101;28;20207;-88
2024/02/26 11:08:28;;;;;;;5.70;5.20;;;;;;;;;;5013856;28;20290;-89
2024/02/26 11:10:56;;;;;;;5.35;4.82;;;;;;;;;;5013773;28;20290;-89
2024/02/26 11:13:30;;;;;;;7.88;6.43;;;;;;;;;;5013684;28;20218;-89
2024/02/26 11:15:58;;;;;;;4.90;4.40;;;;;;;;;;5013767;28;20644;-88
2024/02/26 11:18:27;;;;;;;3.85;3.55;;;;;;;;;;5013630;28;20297;-89
2024/02/26 11:20:57;;;;;;;4.15;3.67;;;;;;;;;;5013705;28;20198;-89
2024/02/26 11:23:25;;;;;;;6.85;5.75;;;;;;;;;;5013568;28;20291;-88
2024/02/26 11:25:54;;;;;;;5.43;4.93;;;;;;;;;;5013699;28;20290;-89
2024/02/26 11:28:24;;;;;;;5.82;5.22;;;;;;;;;;5018314;28;20302;-89
2024/02/26 11:30:52;;;;;;;5.15;4.50;;;;;;;;;;5012941;28;20669;-89
2024/02/26 11:33:19;;;;;;;4.10;3.70;;;;;;;;;;5013282;28;20213;-89
2024/02/26 11:35:47;;;;;;;5.65;4.82;;;;;;;;;;5013429;28;20234;-89
2024/02/26 11:38:20;;;;;;;4.05;3.65;;;;;;;;;;5013167;28;20660;-93
2024/02/26 11:40:48;;;;;;;3.90;3.13;;;;;;;;;;5022243;28;20230;-89
2024/02/26 11:45:59;;;;;;;3.22;3.00;;;;;;;;;;5121409;22;20280;-96
2024/02/26 11:48:36;;;;;;;6.43;5.00;;;;;;;;;;5039440;28;20175;-96
2024/02/26 11:51:12;;;;;;;5.03;4.60;;;;;;;;;;5039001;28;20180;-95
2024/02/26 11:56:26;;;;;;;8.48;5.53;;;;;;;;;;5200142;22;20222;-94
2024/02/26 11:59:06;;;;;;;5.97;5.05;;;;;;;;;;5038038;28;20186;-92
2024/02/26 12:01:52;;;;;;;5.40;4.90;;;;;;;;;;5037619;28;20214;-93
2024/02/26 12:04:22;;;;;;;12.75;5.47;;;;;;;;;;5037387;28;20211;-93
2024/02/26 12:06:56;;;;;;;5.35;4.85;;;;;;;;;;5037760;28;20183;-93
2024/02/26 12:09:36;;;;;;;5.22;4.82;;;;;;;;;;5037799;28;20187;-93
2024/02/26 12:12:06;;;;;;;6.35;5.00;;;;;;;;;;5037340;28;20190;-93
2024/02/26 12:14:37;;;;;;;4.43;4.00;;;;;;;;;;5037637;28;20203;-93
2024/02/26 12:17:08;;;;;;;6.53;5.80;;;;;;;;;;5037731;28;20253;-89
2024/02/26 12:19:37;;;;;;;5.50;4.95;;;;;;;;;;5037836;28;20183;-91
2024/02/26 12:22:08;;;;;;;4.90;4.40;;;;;;;;;;5037467;28;20281;-92
2024/02/26 12:24:36;;;;;;;4.80;4.32;;;;;;;;;;5037531;28;20207;-92
2024/02/26 12:27:04;;;;;;;4.82;4.32;;;;;;;;;;5037680;28;20191;-92
2024/02/26 12:29:31;;;;;;;6.40;4.95;;;;;;;;;;5037542;28;20242;-93
2024/02/26 12:31:59;;;;;;;4.85;4.10;;;;;;;;;;5037487;28;20187;-92
2024/02/26 12:34:28;;;;;;;4.93;4.05;;;;;;;;;;5037436;28;20207;-91
2024/02/26 12:36:56;;;;;;;5.38;4.57;;;;;;;;;;5037327;28;20215;-94
2024/02/26 12:39:24;;;;;;;4.63;4.22;;;;;;;;;;5037401;28;20191;-93
2024/02/26 12:41:51;;;;;;;3.97;3.58;;;;;;;;;;5039534;28;20195;-92
2024/02/26 12:44:19;;;;;;;3.60;3.30;;;;;;;;;;5041469;28;20214;-93
2024/02/26 12:46:47;;;;;;;3.35;3.05;;;;;;;;;;5041593;28;20182;-93
2024/02/26 12:49:17;;;;;;;5.25;4.72;;;;;;;;;;5041321;28;20194;-91
2024/02/26 12:51:47;;;;;;;3.88;3.55;;;;;;;;;;5041314;28;20246;-92
2024/02/26 12:54:15;;;;;;;4.15;3.75;;;;;;;;;;5041311;28;20202;-93
2024/02/26 12:56:43;;;;;;;4.82;4.05;;;;;;;;;;5040966;28;20218;-92
2024/02/26 12:59:10;;;;;;;5.80;4.53;;;;;;;;;;5041057;28;20183;-93
2024/02/26 13:01:38;;;;;;;4.70;4.30;;;;;;;;;;5040717;28;20191;-92
2024/02/26 13:04:06;;;;;;;4.88;4.47;;;;;;;;;;5041069;28;20222;-93
2024/02/26 13:06:34;;;;;;;4.18;3.78;;;;;;;;;;5041061;28;20206;-92
2024/02/26 13:09:04;;;;;;;4.38;4.07;;;;;;;;;;5040784;28;20217;-94
2024/02/26 13:11:32;;;;;;;4.57;4.18;;;;;;;;;;5040794;28;20191;-92
2024/02/26 13:14:01;;;;;;;5.32;4.60;;;;;;;;;;5040860;28;20199;-93
2024/02/26 13:16:46;;;;;;;5.40;4.90;;;;;;;;;;5040857;28;20263;-94
2024/02/26 13:19:16;;;;;;;4.28;3.83;;;;;;;;;;5040773;28;20203;-95
2024/02/26 13:21:47;;;;;;;4.18;3.38;;;;;;;;;;5040677;28;20187;-93
2024/02/26 13:24:17;;;;;;;4.18;3.60;;;;;;;;;;5040757;28;20199;-92
2024/02/26 13:26:45;;;;;;;5.10;4.70;;;;;;;;;;5040642;28;20175;-93
2024/02/26 13:29:19;;;;;;;5.95;4.43;;;;;;;;;;5040767;28;20183;-91
2024/02/26 13:31:46;;;;;;;4.97;4.57;;;;;;;;;;5039041;28;20203;-93
2024/02/26 13:34:25;;;;;;;4.10;3.70;;;;;;;;;;5040155;28;20270;-92
2024/02/26 13:36:53;;;;;;;4.40;4.00;;;;;;;;;;5039890;28;20231;-93
2024/02/26 13:39:26;;;;;;;4.68;4.03;;;;;;;;;;5040025;28;20203;-94
2024/02/26 13:41:54;;;;;;;3.55;3.25;;;;;;;;;;5040242;28;20183;-93
2024/02/26 13:44:23;;;;;;;3.70;3.28;;;;;;;;;;5040514;28;20214;-93
2024/02/26 13:46:51;;;;;;;4.30;3.88;;;;;;;;;;5040348;28;20195;-93
2024/02/26 13:49:18;;;;;;;4.53;4.13;;;;;;;;;;5040341;28;20566;-93
2024/02/26 13:51:46;;;;;;;3.88;3.53;;;;;;;;;;5040160;28;20206;-94
2024/02/26 13:54:14;;;;;;;3.28;2.97;;;;;;;;;;5039490;28;20191;-93
2024/02/26 13:56:44;;;;;;;4.43;3.15;;;;;;;;;;5040068;28;20266;-93
2024/02/26 13:59:11;;;;;;;4.63;4.22;;;;;;;;;;5040197;28;20179;-92
2024/02/26 14:01:39;;;;;;;6.00;5.13;;;;;;;;;;5039851;28;20187;-93
2024/02/26 14:04:08;;;;;;;6.13;4.85;;;;;;;;;;5039952;28;20207;-93
2024/02/26 14:06:36;;;;;;;4.70;4.10;;;;;;;;;;5039911;28;20210;-94
2024/02/26 14:09:04;;;;;;;5.15;4.43;;;;;;;;;;5040043;28;20183;-93
2024/02/26 14:11:33;;;;;;;4.03;3.63;;;;;;;;;;5039822;28;20258;-92
2024/02/26 14:14:02;;;;;;;4.93;4.20;;;;;;;;;;5039783;28;20223;-94
2024/02/26 14:16:30;;;;;;;3.95;3.53;;;;;;;;;;5039760;28;20187;-93
2024/02/26 14:18:58;;;;;;;3.30;3.00;;;;;;;;;;5039900;28;20190;-95
2024/02/26 14:21:27;;;;;;;2.88;2.63;;;;;;;;;;5039709;28;20248;-93
2024/02/26 14:23:55;;;;;;;3.50;2.80;;;;;;;;;;5039408;28;20191;-93
2024/02/26 14:26:24;;;;;;;2.83;2.63;;;;;;;;;;5039569;28;20209;-94
2024/02/26 14:28:51;;;;;;;3.97;3.67;;;;;;;;;;5039540;28;20198;-92
2024/02/26 14:31:21;;;;;;;5.68;3.63;;;;;;;;;;5038904;28;20222;-92
2024/02/26 14:33:52;;;;;;;5.45;3.10;;;;;;;;;;5039347;28;20191;-93
2024/02/26 14:36:20;;;;;;;4.60;4.20;;;;;;;;;;5039544;28;20187;-93
2024/02/26 14:38:48;;;;;;;4.70;4.30;;;;;;;;;;5038927;28;20211;-94
2024/02/26 14:41:16;;;;;;;3.30;2.97;;;;;;;;;;5039380;28;20199;-94
2024/02/26 14:43:44;;;;;;;4.00;3.45;;;;;;;;;;5039219;28;20223;-93
2024/02/26 14:46:12;;;;;;;3.70;3.40;;;;;;;;;;5039269;28;20191;-94
2024/02/26 14:48:42;;;;;;;4.93;3.90;;;;;;;;;;5039234;28;20210;-93
2024/02/26 14:51:09;;;;;;;3.17;2.92;;;;;;;;;;5038988;28;20194;-93
2024/02/26 14:53:37;;;;;;;5.20;3.47;;;;;;;;;;5038958;28;20247;-93
2024/02/26 14:56:05;;;;;;;5.80;4.03;;;;;;;;;;5038993;28;20195;-92
2024/02/26 14:58:33;;;;;;;3.67;3.38;;;;;;;;;;5039063;28;20215;-92
2024/02/26 15:01:01;;;;;;;2.67;2.47;;;;;;;;;;5038945;28;20206;-93
2024/02/26 15:03:28;;;;;;;2.80;2.60;;;;;;;;;;5038817;28;20182;-93
2024/02/26 15:05:57;;;;;;;3.22;2.58;;;;;;;;;;5037773;28;20187;-92
2024/02/26 15:08:25;;;;;;;6.25;2.97;;;;;;;;;;5038998;28;20179;-93
2024/02/26 15:10:52;;;;;;;4.35;3.80;;;;;;;;;;5038832;28;20179;-92
2024/02/26 15:13:20;;;;;;;4.70;4.28;;;;;;;;;;5038477;28;20183;-95
2024/02/26 15:15:48;;;;;;;4.35;3.38;;;;;;;;;;5038839;28;20194;-93
2024/02/26 15:18:16;;;;;;;4.20;3.80;;;;;;;;;;5038645;28;20206;-93
2024/02/26 15:20:45;;;;;;;3.70;3.40;;;;;;;;;;5038658;28;20210;-91
2024/02/26 15:23:14;;;;;;;3.67;3.38;;;;;;;;;;5038444;28;20183;-93
2024/02/26 15:25:42;;;;;;;4.47;3.72;;;;;;;;;;5038623;28;20195;-93
2024/02/26 15:28:13;;;;;;;4.85;4.32;;;;;;;;;;5038624;28;20190;-93
2024/02/26 15:30:41;;;;;;;5.07;4.28;;;;;;;;;;5038464;28;20183;-92
2024/02/26 15:33:09;;;;;;;6.03;4.05;;;;;;;;;;5038258;28;20174;-93
2024/02/26 15:35:37;;;;;;;3.35;3.05;;;;;;;;;;5038399;28;20222;-94
2024/02/26 15:38:05;;;;;;;3.28;3.03;;;;;;;;;;5038152;28;20203;-92
2024/02/26 15:40:34;;;;;;;3.30;3.03;;;;;;;;;;5038277;28;20186;-93
2024/02/26 15:43:02;;;;;;;4.22;3.83;;;;;;;;;;5038022;28;20183;-94
2024/02/26 15:45:32;;;;;;;4.07;3.65;;;;;;;;;;5038213;28;20215;-93
2024/02/26 15:47:59;;;;;;;3.72;3.42;;;;;;;;;;5038255;28;20187;-94
2024/02/26 15:50:27;;;;;;;3.80;3.45;;;;;;;;;;5038166;28;20199;-92
2024/02/26 15:52:55;;;;;;;5.25;4.75;;;;;;;;;;5037990;28;20191;-93
2024/02/26 15:55:23;;;;;;;5.88;4.75;;;;;;;;;;5037829;28;20211;-93
2024/02/26 15:57:52;;;;;;;2.97;2.53;;;;;;;;;;5037957;28;20199;-94
2024/02/26 16:00:20;;;;;;;4.07;3.58;;;;;;;;;;5037985;28;20199;-93
2024/02/26 16:02:50;;;;;;;4.10;3.70;;;;;;;;;;5037798;28;20183;-94
2024/02/26 16:05:18;;;;;;;4.22;3.80;;;;;;;;;;5037957;28;20238;-94
2024/02/26 16:07:49;;;;;;;3.72;3.10;;;;;;;;;;5037901;28;20179;-93
2024/02/26 16:10:17;;;;;;;3.55;3.25;;;;;;;;;;5037891;28;20195;-93
2024/02/26 16:12:52;;;;;;;3.42;3.10;;;;;;;;;;5037734;28;20251;-94
2024/02/26 16:15:20;;;;;;;5.68;5.07;;;;;;;;;;5037696;28;20194;-93
2024/02/26 16:17:49;;;;;;;4.63;3.97;;;;;;;;;;5037637;28;20176;-94
2024/02/26 16:20:18;;;;;;;4.07;3.67;;;;;;;;;;5037753;28;20179;-93
2024/02/26 16:22:46;;;;;;;3.47;3.17;;;;;;;;;;5037626;28;20243;-93
2024/02/26 16:25:14;;;;;;;3.75;3.40;;;;;;;;;;5037675;28;20202;-95
2024/02/26 16:27:42;;;;;;;6.22;3.42;;;;;;;;;;5037703;28;20183;-93
2024/02/26 16:30:12;;;;;;;4.15;3.75;;;;;;;;;;5037602;28;20179;-94
2024/02/26 16:32:41;;;;;;;3.50;3.15;;;;;;;;;;5037455;28;20187;-93
2024/02/26 16:35:11;;;;;;;3.65;3.35;;;;;;;;;;5037540;28;20191;-94
2024/02/26 16:37:39;;;;;;;3.80;3.40;;;;;;;;;;5037367;28;20210;-93
2024/02/26 16:40:09;;;;;;;5.32;4.18;;;;;;;;;;5037477;28;20199;-93
2024/02/26 16:42:37;;;;;;;4.13;3.28;;;;;;;;;;5037400;28;20206;-94
2024/02/26 16:45:06;;;;;;;3.42;3.13;;;;;;;;;;5037397;28;20203;-93
2024/02/26 16:47:36;;;;;;;4.18;3.75;;;;;;;;;;5037511;28;20183;-93
2024/02/26 16:50:05;;;;;;;4.40;3.38;;;;;;;;;;5037577;28;20183;-92
2024/02/26 16:52:33;;;;;;;2.70;2.42;;;;;;;;;;5037255;28;20229;-93
2024/02/26 16:55:01;;;;;;;3.65;3.15;;;;;;;;;;5037304;28;20225;-93
2024/02/26 16:57:29;;;;;;;3.55;3.22;;;;;;;;;;5037200;28;20183;-93
2024/02/26 16:59:56;;;;;;;4.07;3.67;;;;;;;;;;5037402;28;20254;-92
2024/02/26 17:02:24;;;;;;;3.00;2.80;;;;;;;;;;5037225;28;20179;-93
2024/02/26 17:04:53;;;;;;;3.40;2.70;;;;;;;;;;5037282;28;20191;-91
2024/02/26 17:07:21;;;;;;;3.50;3.20;;;;;;;;;;5037352;28;20186;-92
2024/02/26 17:09:48;;;;;;;2.65;2.45;;;;;;;;;;5037381;28;20214;-92
2024/02/26 17:12:17;;;;;;;2.70;2.50;;;;;;;;;;5037000;28;20195;-93
2024/02/26 17:14:48;;;;;;;3.08;2.22;;;;;;;;;;5037264;28;20215;-91
2024/02/26 17:17:16;;;;;;;2.90;2.58;;;;;;;;;;5037164;28;20195;-94
2024/02/26 17:19:44;;;;;;;1.85;1.75;;;;;;;;;;5037252;28;20218;-94
2024/02/26 17:22:13;;;;;;;2.22;2.03;;;;;;;;;;5036905;28;20188;-93
2024/02/26 17:24:40;;;;;;;4.35;3.95;;;;;;;;;;5037003;28;20200;-95
2024/02/26 17:27:08;;;;;;;3.15;2.85;;;;;;;;;;5037011;28;20259;-94
2024/02/26 17:29:34;;;;;;;2.78;2.58;;;;;;;;;;5040365;28;20183;-91